Terminal Aerodrome Forecast
Issued by NWS

Home | Current Version | Previous Version | Text Only | Print | Product List | Glossary On
Versions: 1 2 3 4 5 6 7 8 9 10 11 12 13 14 15 16
000
FTAK31 PANC 202334 CCB
TAFAHO
TAF COR
PAHO 202334Z 2100/2124 03005KT 3SM -SN BR BKN015 OVC025
      TEMPO 2100/2103 1/2SM SN FG OVC007
     FM210600 24008KT 6SM BR VCSH SCT010 OVC025=

USA.gov is the U.S. government's official web portal to all federal, state and local government web resources and services.